Time;durP1;ratioP1;P1;durP2;ratioP2;P2;SDS_P1;SDS_P2;PMS_P1;PMS_P2;Temp;Humidity;BMP_temperature;BMP_pressure;BME280_temperature;BME280_humidity;BME280_pressure;Samples;Min_cycle;Max_cycle;Signal;HPM_P1;HPM_P2
2023/07/18 00:00:55;;;;;;;3.13;2.03;;;17.00;58.40;;;17.06;56.20;98433.41;5033592;28;20532;-76
2023/07/18 00:03:23;;;;;;;7.57;2.60;;;17.00;58.70;;;16.93;56.98;98438.09;5025882;28;20555;-75
2023/07/18 00:05:50;;;;;;;4.33;2.40;;;16.80;59.50;;;16.81;57.20;98440.88;5027113;28;20478;-75
2023/07/18 00:08:17;;;;;;;2.57;2.20;;;16.70;60.20;;;16.55;57.93;98415.06;5026518;28;20453;-75
2023/07/18 00:10:44;;;;;;;3.67;2.93;;;16.60;60.90;;;16.54;59.16;98425.16;5031239;28;21112;-77
2023/07/18 00:13:16;;;;;;;3.57;2.27;;;16.50;62.10;;;16.49;59.50;98449.56;5024140;28;21016;-75
2023/07/18 00:15:44;;;;;;;3.33;2.80;;;16.40;63.30;;;16.50;59.81;98453.97;5030797;28;20449;-75
2023/07/18 00:18:11;;;;;;;4.83;2.70;;;16.30;64.70;;;16.52;59.39;98460.00;5043592;28;20474;-76
2023/07/18 00:20:39;;;;;;;2.70;2.43;;;16.40;65.00;;;16.38;60.45;98447.75;5027193;28;20449;-75
2023/07/18 00:23:09;;;;;;;3.23;2.77;;;16.30;65.80;;;16.32;59.47;98460.44;5034699;28;20499;-76
2023/07/18 00:25:36;;;;;;;3.00;2.70;;;16.30;65.50;;;15.78;59.77;98395.28;5024856;28;20468;-75
2023/07/18 00:28:05;;;;;;;3.63;2.33;;;16.20;65.40;;;16.11;59.42;98457.28;5048049;28;20448;-76
2023/07/18 00:30:33;;;;;;;3.17;2.30;;;16.10;65.90;;;16.23;58.90;98468.19;5031870;28;20927;-75
2023/07/18 00:33:01;;;;;;;7.47;2.93;;;16.10;64.90;;;16.11;59.02;98464.66;5040440;28;20523;-75
2023/07/18 00:35:28;;;;;;;3.10;2.33;;;16.00;65.00;;;16.11;58.85;98465.47;5029551;28;20546;-75
2023/07/18 00:37:57;;;;;;;2.80;2.37;;;15.90;65.50;;;15.99;59.67;98461.94;5028910;28;20458;-76
2023/07/18 00:40:24;;;;;;;4.30;2.40;;;15.80;66.10;;;16.03;59.45;98468.59;5029020;28;20814;-76
2023/07/18 00:42:52;;;;;;;3.07;2.77;;;15.80;66.50;;;16.07;59.15;98475.19;5028649;28;20471;-75
2023/07/18 00:45:20;;;;;;;4.50;2.60;;;15.80;66.40;;;16.09;59.10;98464.88;5029839;28;20480;-76
2023/07/18 00:47:49;;;;;;;2.70;2.00;;;15.80;66.40;;;15.88;58.58;98449.16;5037968;28;20452;-76
2023/07/18 00:50:18;;;;;;;5.63;2.40;;;15.70;65.90;;;15.84;58.75;98438.72;5045304;28;20461;-75
2023/07/18 00:52:49;;;;;;;4.40;2.50;;;15.70;66.20;;;16.04;58.84;98458.50;5061065;28;20442;-75
2023/07/18 00:55:17;;;;;;;3.37;2.47;;;15.70;66.50;;;16.10;59.69;98458.34;5030053;28;20513;-75
2023/07/18 00:57:47;;;;;;;2.23;2.00;;;15.80;67.80;;;16.00;60.11;98469.06;5045817;28;20456;-76
2023/07/18 01:00:16;;;;;;;4.10;3.30;;;15.80;68.10;;;15.80;59.51;98453.06;5028516;28;20551;-76
2023/07/18 01:02:46;;;;;;;2.60;2.10;;;15.60;67.30;;;15.93;59.61;98462.91;5026927;28;20463;-75
2023/07/18 01:05:17;;;;;;;3.40;2.63;;;15.70;67.30;;;16.03;58.85;98468.59;5029533;28;20512;-75
2023/07/18 01:07:44;;;;;;;3.50;2.60;;;15.70;67.00;;;16.00;59.26;98463.63;5029817;28;20798;-76
2023/07/18 01:10:23;;;;;;;4.07;2.20;;;15.80;67.10;;;16.05;59.79;98460.16;5032685;28;20459;-76
2023/07/18 01:12:52;;;;;;;3.53;2.83;;;15.80;68.20;;;15.93;59.62;98471.09;5029478;28;20484;-75
2023/07/18 01:15:20;;;;;;;2.93;2.47;;;15.80;67.70;;;15.76;60.23;98471.78;5037230;28;20802;-76
2023/07/18 01:17:48;;;;;;;2.87;2.20;;;15.70;67.80;;;15.96;59.80;98467.88;5033481;28;20519;-75
2023/07/18 01:20:19;;;;;;;3.87;2.40;;;15.80;68.10;;;15.87;60.80;98464.66;5028748;28;20947;-75
2023/07/18 01:22:49;;;;;;;3.17;2.87;;;15.80;68.90;;;15.94;60.94;98465.41;5027609;28;20486;-75
2023/07/18 01:25:18;;;;;;;4.30;2.13;;;15.80;69.40;;;15.67;61.84;98459.59;5034105;28;20452;-75
2023/07/18 01:27:45;;;;;;;4.83;2.43;;;15.70;69.40;;;15.58;62.04;98446.34;5027265;28;20481;-74
2023/07/18 01:30:13;;;;;;;3.30;2.10;;;15.60;69.80;;;15.66;62.11;98457.94;5028689;28;20456;-74
2023/07/18 01:32:42;;;;;;;3.73;2.80;;;15.60;70.50;;;15.61;62.47;98469.53;5026789;28;20976;-75
2023/07/18 01:35:10;;;;;;;4.00;2.97;;;15.50;70.80;;;15.61;62.70;98453.19;5030331;28;20449;-75
2023/07/18 01:37:39;;;;;;;4.20;3.40;;;15.50;71.10;;;15.55;62.14;98449.53;5045381;28;20525;-74
2023/07/18 01:40:12;;;;;;;3.93;3.03;;;15.50;71.70;;;15.46;63.25;98461.84;5023284;28;20857;-76
2023/07/18 01:42:39;;;;;;;4.00;3.17;;;15.40;71.90;;;15.38;63.18;98448.56;5039995;28;20461;-75
2023/07/18 01:45:07;;;;;;;4.40;3.20;;;15.30;72.30;;;15.24;63.59;98454.28;5027163;28;20460;-76
2023/07/18 01:47:35;;;;;;;3.60;3.30;;;15.20;73.10;;;15.18;63.92;98462.53;5029793;28;20502;-75
2023/07/18 01:50:12;;;;;;;4.97;3.00;;;15.20;73.50;;;15.19;64.35;98454.13;5027886;28;20647;-75
2023/07/18 01:52:39;;;;;;;3.10;2.47;;;15.10;74.10;;;15.26;64.39;98460.31;5030078;28;20487;-75
2023/07/18 01:55:09;;;;;;;3.00;2.80;;;15.10;74.80;;;15.17;64.56;98453.53;5036140;28;20542;-75
2023/07/18 01:57:45;;;;;;;4.33;2.53;;;15.10;74.90;;;15.04;65.24;98467.34;5011231;28;20468;-75
2023/07/18 02:00:18;;;;;;;4.80;3.43;;;15.00;75.60;;;15.08;65.18;98469.38;5050122;28;20452;-76
2023/07/18 02:02:48;;;;;;;3.00;2.67;;;14.90;76.10;;;15.04;65.08;98464.63;5027424;28;20454;-75
2023/07/18 02:05:17;;;;;;;3.83;2.83;;;14.90;75.80;;;14.98;65.10;98445.47;5027694;28;20452;-74
2023/07/18 02:07:45;;;;;;;3.63;2.67;;;14.90;76.50;;;14.92;65.22;98460.00;5028895;28;20506;-75
2023/07/18 02:10:15;;;;;;;3.20;2.60;;;14.90;76.00;;;14.93;65.01;98460.84;5027869;28;20465;-75
2023/07/18 02:12:42;;;;;;;6.10;3.13;;;14.90;76.50;;;15.04;65.33;98467.34;5026549;28;20500;-75
2023/07/18 02:15:13;;;;;;;3.33;3.03;;;14.80;76.90;;;14.87;65.26;98468.03;5029724;28;20447;-75
2023/07/18 02:17:40;;;;;;;3.50;3.20;;;14.70;76.60;;;14.50;64.69;98400.97;5044768;28;20456;-75
2023/07/18 02:20:11;;;;;;;2.90;2.60;;;14.80;76.50;;;14.90;65.09;98466.75;5022356;28;20472;-76
2023/07/18 02:22:40;;;;;;;3.93;3.50;;;14.70;77.00;;;14.69;65.18;98467.00;5030319;28;20447;-74
2023/07/18 02:25:08;;;;;;;3.83;2.80;;;14.70;76.70;;;14.54;66.13;98458.44;5026889;28;20476;-74
2023/07/18 02:27:40;;;;;;;5.07;3.90;;;14.60;77.00;;;14.81;65.36;98466.25;5047224;28;20467;-74
2023/07/18 02:30:09;;;;;;;3.67;2.83;;;14.60;77.30;;;14.78;65.67;98458.53;5032938;28;20487;-75
2023/07/18 02:32:37;;;;;;;3.23;2.93;;;14.60;77.60;;;14.52;66.54;98449.69;5044487;28;20459;-75
2023/07/18 02:35:06;;;;;;;8.10;3.10;;;14.60;77.90;;;14.51;67.34;98458.91;5045975;28;20450;-76
2023/07/18 02:37:33;;;;;;;5.07;2.90;;;14.50;78.30;;;14.48;66.97;98445.75;5039039;28;20454;-75
2023/07/18 02:40:03;;;;;;;3.50;3.03;;;14.50;78.90;;;14.57;67.06;98460.69;5041117;28;20457;-75
2023/07/18 02:42:33;;;;;;;3.70;2.90;;;14.50;78.80;;;14.61;66.55;98453.72;5032836;28;20439;-75
2023/07/18 02:45:02;;;;;;;4.67;2.80;;;14.40;78.90;;;14.47;67.43;98458.53;5053045;28;20951;-75
2023/07/18 02:47:30;;;;;;;4.27;2.83;;;14.40;79.60;;;14.51;67.09;98469.78;5037170;28;20479;-75
2023/07/18 02:49:58;;;;;;;4.07;3.20;;;14.30;79.30;;;14.50;67.25;98463.50;5028415;28;20467;-75
2023/07/18 02:52:25;;;;;;;5.73;2.80;;;14.30;79.20;;;14.46;67.22;98456.88;5026118;28;20997;-75
2023/07/18 02:54:53;;;;;;;5.37;3.13;;;14.40;79.30;;;14.43;67.53;98463.59;5027204;28;20465;-75
2023/07/18 02:57:20;;;;;;;4.50;3.00;;;14.30;79.60;;;14.26;67.58;98457.13;5030009;28;20527;-75
2023/07/18 02:59:48;;;;;;;4.97;2.70;;;14.30;79.90;;;14.23;67.61;98457.59;5024908;28;20505;-74
2023/07/18 03:02:16;;;;;;;4.23;3.53;;;14.20;79.90;;;14.16;68.81;98474.78;5028094;28;20458;-74
2023/07/18 03:04:47;;;;;;;4.07;2.90;;;14.10;80.90;;;14.08;68.59;98463.41;5027161;28;20463;-75
2023/07/18 03:07:17;;;;;;;6.70;2.43;;;14.00;80.90;;;13.94;69.59;98462.75;5027236;28;20583;-75
2023/07/18 03:09:44;;;;;;;5.97;3.37;;;13.90;82.00;;;13.96;69.05;98461.47;5038296;28;20444;-75
2023/07/18 03:12:12;;;;;;;6.00;3.00;;;13.80;82.20;;;14.06;67.68;98473.69;5027665;28;20448;-74
2023/07/18 03:14:39;;;;;;;9.67;2.80;;;13.80;80.90;;;13.77;68.52;98441.63;5031868;28;21006;-75
2023/07/18 03:17:07;;;;;;;4.03;3.20;;;13.90;81.20;;;14.10;67.77;98478.44;5026206;28;20479;-75
2023/07/18 03:19:35;;;;;;;3.00;2.53;;;13.90;80.60;;;14.07;67.67;98481.59;5029083;28;20460;-74
2023/07/18 03:22:04;;;;;;;4.33;2.83;;;13.90;80.30;;;13.90;67.73;98470.50;5025439;28;20448;-76
2023/07/18 03:24:33;;;;;;;3.30;2.90;;;13.90;80.00;;;13.95;68.50;98483.41;5030790;28;20929;-75
2023/07/18 03:27:01;;;;;;;5.43;3.50;;;13.80;80.70;;;14.03;68.51;98488.56;5028068;28;20989;-74
2023/07/18 03:29:28;;;;;;;3.90;3.20;;;13.90;81.30;;;13.99;68.33;98490.91;5042488;28;20760;-75
2023/07/18 03:31:55;;;;;;;3.73;3.27;;;13.90;81.10;;;14.03;68.01;98491.28;5030449;28;20549;-75
2023/07/18 03:34:22;;;;;;;4.13;2.70;;;13.90;80.70;;;13.88;68.75;98481.63;5021760;28;20446;-75
2023/07/18 03:36:51;;;;;;;3.50;2.90;;;13.80;81.40;;;13.92;69.36;98495.56;5033338;28;20447;-76
2023/07/18 03:39:18;;;;;;;5.43;3.07;;;13.80;81.80;;;13.92;69.45;98494.75;5027188;28;20990;-75
2023/07/18 03:41:45;;;;;;;3.57;3.10;;;13.80;82.20;;;13.93;69.82;98499.94;5057608;28;20514;-76
2023/07/18 03:44:12;;;;;;;4.20;3.30;;;13.80;82.40;;;13.97;69.89;98506.59;5026612;28;20513;-75
2023/07/18 03:46:39;;;;;;;4.50;3.20;;;13.80;82.60;;;13.99;69.74;98495.47;5029237;28;20537;-75
2023/07/18 03:49:07;;;;;;;5.27;3.23;;;13.80;82.70;;;13.95;70.49;98481.53;5025577;28;20457;-77
2023/07/18 03:51:34;;;;;;;3.53;3.20;;;13.80;83.50;;;14.01;70.40;98494.22;5025026;28;20461;-75
2023/07/18 03:54:03;;;;;;;6.17;2.93;;;13.90;83.80;;;13.84;70.54;98461.38;5027021;28;20962;-75
2023/07/18 03:56:31;;;;;;;4.97;3.57;;;13.90;83.80;;;13.72;69.78;98415.13;5031156;28;20449;-75
2023/07/18 03:58:58;;;;;;;3.20;2.90;;;14.00;84.00;;;14.23;69.92;98490.22;5027956;28;20545;-78
2023/07/18 04:01:26;;;;;;;3.03;2.73;;;14.10;83.10;;;14.27;69.82;98494.97;5029549;28;21357;-75
2023/07/18 04:03:54;;;;;;;8.23;3.70;;;14.20;82.60;;;14.39;69.22;98489.59;5041882;28;20468;-75
2023/07/18 04:06:21;;;;;;;5.37;3.57;;;14.30;82.30;;;14.47;68.63;98495.75;5026423;28;20455;-75
2023/07/18 04:08:49;;;;;;;3.90;2.83;;;14.40;81.90;;;14.56;68.01;98502.53;5041630;28;20455;-75
2023/07/18 04:11:17;;;;;;;5.00;3.20;;;14.50;81.40;;;14.61;67.57;98490.97;5023045;28;20455;-75
2023/07/18 04:13:45;;;;;;;4.03;3.20;;;14.60;80.90;;;14.48;66.80;98467.50;5026785;28;20444;-76
2023/07/18 04:16:12;;;;;;;3.17;2.70;;;14.60;79.90;;;14.69;66.23;98488.75;5032281;28;20450;-77
2023/07/18 04:18:40;;;;;;;3.50;3.20;;;14.80;79.60;;;15.18;65.00;98478.88;5029295;28;20448;-76
2023/07/18 04:21:07;;;;;;;5.47;2.97;;;15.10;79.00;;;15.55;63.03;98471.34;5057169;28;20460;-76
2023/07/18 04:23:34;;;;;;;4.40;2.90;;;15.70;77.50;;;16.61;60.81;98487.72;5030723;28;20470;-76
2023/07/18 04:26:04;;;;;;;4.00;2.97;;;16.50;76.60;;;16.69;59.24;98487.31;5026195;28;20489;-76
2023/07/18 04:28:37;;;;;;;3.10;2.70;;;17.00;74.60;;;17.02;58.30;98484.09;5026679;28;20472;-75
2023/07/18 04:31:04;;;;;;;3.63;2.80;;;17.40;73.70;;;17.68;56.50;98483.53;5023057;28;21108;-76
2023/07/18 04:33:39;;;;;;;7.63;2.93;;;17.90;72.10;;;18.55;53.86;98483.03;5034036;28;20465;-75
2023/07/18 04:36:08;;;;;;;3.83;3.43;;;18.60;70.10;;;18.44;53.42;98475.81;5024370;28;20467;-75
2023/07/18 04:38:37;;;;;;;2.70;2.50;;;18.80;68.60;;;18.38;53.99;98483.13;5032599;28;20441;-75
2023/07/18 04:41:05;;;;;;;2.53;2.33;;;18.90;67.90;;;18.80;52.25;98478.91;5023153;28;20465;-76
2023/07/18 04:43:33;;;;;;;4.10;3.00;;;19.30;66.60;;;18.57;52.69;98480.84;5041501;28;20528;-75
2023/07/18 04:46:00;;;;;;;8.50;3.07;;;19.20;65.90;;;18.57;52.87;98478.13;5041817;28;20449;-75
2023/07/18 04:48:28;;;;;;;5.43;3.50;;;19.10;65.80;;;18.75;52.31;98470.66;5037177;28;21023;-76
2023/07/18 04:51:00;;;;;;;4.20;2.93;;;19.20;65.50;;;19.01;51.46;98481.88;5028026;28;20461;-77
2023/07/18 04:53:28;;;;;;;3.43;2.90;;;19.50;64.70;;;19.03;50.93;98449.56;5032562;28;20459;-76
2023/07/18 04:55:56;;;;;;;5.00;2.40;;;19.70;64.00;;;19.51;50.09;98469.69;5026671;28;20523;-76
2023/07/18 04:58:25;;;;;;;4.13;3.30;;;20.00;63.20;;;19.76;49.29;98468.19;5024699;28;20454;-76
2023/07/18 05:00:55;;;;;;;5.90;2.90;;;20.10;62.60;;;20.30;48.17;98466.31;5025195;28;20519;-76
2023/07/18 05:03:22;;;;;;;4.30;2.67;;;20.30;62.40;;;20.31;47.81;98446.00;5027562;28;20569;-78
2023/07/18 05:05:49;;;;;;;4.37;3.10;;;20.70;61.80;;;21.46;45.11;98466.22;5026851;28;20454;-76
2023/07/18 05:08:17;;;;;;;2.97;2.60;;;21.70;60.10;;;20.89;46.69;98472.53;5034249;28;20482;-77
2023/07/18 05:10:44;;;;;;;3.67;2.83;;;21.80;59.20;;;21.73;45.09;98468.69;5030480;28;20539;-77
2023/07/18 05:13:11;;;;;;;3.00;2.57;;;22.10;58.90;;;22.69;42.15;98466.16;5023620;28;21004;-77
2023/07/18 05:15:38;;;;;;;2.93;2.33;;;22.80;57.40;;;22.34;42.25;98455.81;5030108;28;20938;-76
2023/07/18 05:18:07;;;;;;;3.87;2.87;;;22.70;56.10;;;22.36;41.67;98459.09;5043374;28;20612;-77
2023/07/18 05:20:34;;;;;;;3.10;2.63;;;22.80;55.60;;;21.64;43.85;98465.63;5025805;28;20503;-76
2023/07/18 05:23:02;;;;;;;5.57;3.10;;;22.20;55.90;;;21.07;45.13;98457.41;5050987;28;20463;-76
2023/07/18 05:25:29;;;;;;;4.00;2.70;;;22.10;56.00;;;22.28;44.19;98450.63;5028333;28;20458;-78
2023/07/18 05:27:58;;;;;;;4.57;3.20;;;22.00;57.10;;;21.82;43.73;98448.88;5036691;28;21019;-77
2023/07/18 05:30:27;;;;;;;3.13;2.53;;;22.40;55.80;;;20.89;45.10;98457.97;5034385;28;20680;-76
2023/07/18 05:32:54;;;;;;;4.10;2.83;;;22.10;55.20;;;21.57;44.11;98453.28;5059724;28;20546;-76
2023/07/18 05:35:24;;;;;;;2.57;2.37;;;21.80;55.80;;;22.22;42.61;98447.09;5036808;28;20920;-77
2023/07/18 05:37:51;;;;;;;3.50;2.63;;;22.40;55.40;;;22.28;42.92;98439.59;5025828;28;20472;-77
2023/07/18 05:40:21;;;;;;;4.27;2.67;;;22.60;55.10;;;22.50;42.09;98456.59;5060511;28;22356;-75
2023/07/18 05:42:49;;;;;;;4.50;2.67;;;22.80;54.60;;;23.55;39.86;98445.66;5029898;28;20463;-77
2023/07/18 05:45:17;;;;;;;4.03;3.07;;;23.50;54.10;;;22.34;41.68;98453.06;5039963;28;21163;-77
2023/07/18 05:47:45;;;;;;;7.93;2.90;;;23.00;53.40;;;22.83;40.74;98428.59;5025813;28;20591;-77
2023/07/18 05:50:12;;;;;;;3.30;2.80;;;22.90;53.80;;;22.47;42.16;98450.81;5037087;28;20469;-77
2023/07/18 05:52:41;;;;;;;5.20;2.80;;;23.00;54.00;;;22.94;41.00;98443.13;5025456;28;20454;-77
2023/07/18 05:55:10;;;;;;;6.00;2.77;;;23.10;53.80;;;23.76;40.02;98454.53;5011004;28;20455;-77
2023/07/18 05:57:37;;;;;;;4.87;2.30;;;23.70;54.00;;;23.49;39.28;98440.19;5026856;28;20473;-76
2023/07/18 06:00:06;;;;;;;3.87;2.90;;;23.90;52.60;;;22.76;41.19;98439.09;5063757;28;20761;-78
2023/07/18 06:02:34;;;;;;;3.87;2.90;;;23.90;52.70;;;21.87;42.87;98451.59;5034683;28;20470;-76
2023/07/18 06:05:01;;;;;;;5.00;2.60;;;23.00;52.90;;;21.22;44.09;98453.88;5023532;28;20460;-76
2023/07/18 06:07:29;;;;;;;4.47;2.40;;;22.20;53.20;;;22.13;42.53;98437.75;5021187;28;20473;-77
2023/07/18 06:09:57;;;;;;;5.13;2.70;;;22.40;53.60;;;22.24;42.07;98427.53;5061556;28;20447;-76
2023/07/18 06:12:26;;;;;;;4.23;2.50;;;23.10;53.20;;;22.40;41.73;98392.50;5035870;28;20499;-76
2023/07/18 06:14:55;;;;;;;3.23;2.57;;;23.30;53.20;;;22.70;41.20;98386.00;5027197;28;20802;-76
2023/07/18 06:17:22;;;;;;;4.20;2.97;;;23.70;52.90;;;24.22;38.60;98439.44;5032815;28;20477;-75
2023/07/18 06:19:49;;;;;;;2.50;2.30;;;24.30;52.70;;;23.88;39.17;98440.34;5061052;28;20451;-75
2023/07/18 06:22:18;;;;;;;2.80;2.23;;;24.30;51.90;;;23.88;38.99;98432.06;5022338;28;20458;-76
2023/07/18 06:24:46;;;;;;;2.53;2.33;;;24.40;52.00;;;23.16;40.25;98420.63;5032653;28;20465;-76
2023/07/18 06:27:14;;;;;;;3.23;2.63;;;24.20;51.70;;;22.71;40.99;98436.38;5028289;28;21010;-77
2023/07/18 06:29:47;;;;;;;3.50;2.23;;;23.80;51.60;;;21.66;43.17;98432.41;5021710;28;20459;-76
2023/07/18 06:32:15;;;;;;;3.63;2.30;;;22.60;52.60;;;21.32;44.66;98444.00;5049658;28;20469;-76
2023/07/18 06:34:43;;;;;;;3.23;2.33;;;21.60;53.80;;;20.44;46.48;98443.84;5034517;28;20445;-75
2023/07/18 06:37:10;;;;;;;2.77;2.07;;;20.80;54.20;;;20.61;46.17;98443.59;5038391;28;20991;-76
2023/07/18 06:39:37;;;;;;;3.17;1.93;;;20.60;54.90;;;20.51;46.99;98444.41;5044008;28;20934;-76
2023/07/18 06:42:06;;;;;;;4.53;2.20;;;20.40;55.50;;;20.39;46.69;98437.22;5024240;28;20460;-75
2023/07/18 06:44:34;;;;;;;3.40;2.40;;;20.20;55.60;;;20.17;48.69;98428.41;5029133;28;20482;-77
2023/07/18 06:47:02;;;;;;;3.30;2.20;;;20.20;56.70;;;19.73;48.17;98435.84;5026511;28;20464;-76
2023/07/18 06:49:30;;;;;;;2.90;2.03;;;20.00;55.80;;;19.62;48.41;98424.00;5043886;28;20803;-76
2023/07/18 06:51:57;;;;;;;3.73;2.43;;;19.80;56.10;;;20.18;47.70;98430.03;5033773;28;20598;-76
2023/07/18 06:54:25;;;;;;;2.67;2.07;;;19.90;56.50;;;20.35;47.89;98425.16;5033745;28;20823;-76
2023/07/18 06:56:52;;;;;;;2.37;1.93;;;20.20;56.70;;;20.12;46.47;98423.72;5059289;28;20451;-75
2023/07/18 06:59:20;;;;;;;2.50;2.30;;;20.30;55.50;;;20.35;46.39;98405.94;5042343;28;20459;-76
2023/07/18 07:01:48;;;;;;;4.50;2.03;;;20.30;55.80;;;20.46;46.72;98425.19;5024779;28;20450;-77
2023/07/18 07:04:17;;;;;;;2.60;1.90;;;20.40;56.10;;;20.67;45.63;98412.34;5023475;28;20449;-76
2023/07/18 07:06:44;;;;;;;2.23;1.70;;;20.50;55.50;;;20.75;45.18;98409.03;5024991;28;20467;-76
2023/07/18 07:09:13;;;;;;;2.50;2.30;;;20.70;55.30;;;20.92;44.23;98408.81;5024775;28;20569;-73
2023/07/18 07:11:40;;;;;;;3.20;2.23;;;20.80;54.60;;;20.85;44.33;98410.19;5029960;28;20495;-72
2023/07/18 07:14:07;;;;;;;2.00;1.70;;;20.90;54.50;;;20.45;45.18;98401.59;5032863;28;20503;-73
2023/07/18 07:16:35;;;;;;;3.40;1.80;;;20.60;54.50;;;20.85;46.20;98399.22;5025931;28;20447;-73
2023/07/18 07:19:06;;;;;;;2.80;1.90;;;20.80;55.90;;;20.58;44.50;98312.41;5029241;28;20526;-73
2023/07/18 07:21:33;;;;;;;3.00;2.20;;;21.00;54.90;;;21.53;44.33;98392.53;5036665;28;20837;-72
2023/07/18 07:24:01;;;;;;;3.27;1.80;;;21.30;54.80;;;21.52;43.70;98388.97;5033325;28;20457;-72
2023/07/18 07:26:28;;;;;;;1.70;1.60;;;21.50;54.60;;;21.50;44.17;98371.94;5024988;28;20461;-72
2023/07/18 07:28:55;;;;;;;2.20;1.90;;;21.60;54.90;;;20.97;45.38;98393.44;5038906;28;20539;-71
2023/07/18 07:31:22;;;;;;;3.63;2.23;;;21.30;54.80;;;21.52;44.32;98391.72;5035392;28;20484;-73
2023/07/18 07:33:50;;;;;;;4.03;2.30;;;21.40;55.10;;;21.64;43.63;98387.84;5058733;28;20450;-72
2023/07/18 07:36:20;;;;;;;2.90;2.30;;;21.50;54.40;;;21.74;43.55;98374.09;5041672;28;20465;-72
2023/07/18 07:38:48;;;;;;;3.47;2.43;;;21.70;54.60;;;21.45;44.67;98385.69;5031299;28;20513;-72
2023/07/18 07:41:16;;;;;;;7.47;2.47;;;21.60;55.00;;;21.77;44.65;98373.56;5051601;28;20823;-73
2023/07/18 07:43:43;;;;;;;2.23;2.03;;;21.60;55.30;;;21.81;43.45;98353.72;5034776;28;20532;-73
2023/07/18 07:46:10;;;;;;;3.47;2.30;;;21.80;54.60;;;21.72;43.37;98362.56;5055823;28;20512;-72
2023/07/18 07:48:38;;;;;;;2.77;2.10;;;21.70;54.60;;;21.70;44.26;98364.75;5029515;28;20501;-72
2023/07/18 07:51:06;;;;;;;2.30;2.10;;;21.80;54.70;;;22.10;44.10;98362.09;5023718;28;20483;-74
2023/07/18 07:53:34;;;;;;;3.33;2.23;;;21.90;55.50;;;22.23;43.06;98360.69;5040230;28;20450;-73
2023/07/18 07:56:01;;;;;;;3.27;2.20;;;22.10;54.80;;;22.33;42.69;98365.31;5033235;28;20486;-72
2023/07/18 07:58:28;;;;;;;2.03;1.83;;;22.20;54.40;;;22.31;42.75;98360.06;5026824;28;21227;-72
2023/07/18 08:00:56;;;;;;;2.30;2.10;;;22.20;54.40;;;22.12;43.58;98359.09;5032363;28;20829;-74
2023/07/18 08:03:23;;;;;;;8.43;2.50;;;22.10;54.40;;;22.10;41.80;98355.81;5025978;28;20454;-73
2023/07/18 08:05:50;;;;;;;2.27;2.07;;;22.10;53.30;;;22.39;41.69;98346.81;5034360;28;20460;-73
2023/07/18 08:08:19;;;;;;;3.30;2.30;;;22.20;53.40;;;22.70;41.97;98352.13;5029146;28;20771;-73
2023/07/18 08:10:47;;;;;;;4.80;2.63;;;22.40;54.00;;;22.80;41.13;98343.78;5058880;28;20461;-73
2023/07/18 08:13:17;;;;;;;5.83;2.33;;;22.60;53.40;;;22.80;41.31;98343.78;5026115;28;20458;-73
2023/07/18 08:15:44;;;;;;;3.10;2.30;;;22.60;53.30;;;22.30;40.86;98262.09;5034210;28;20460;-72
2023/07/18 08:18:12;;;;;;;2.57;2.37;;;22.70;52.90;;;23.11;40.83;98335.22;5034297;28;20887;-73
2023/07/18 08:20:39;;;;;;;3.37;2.30;;;22.90;53.40;;;22.70;40.76;98330.09;5022816;28;20759;-72
2023/07/18 08:23:07;;;;;;;2.63;2.30;;;22.80;52.60;;;22.52;40.87;98324.19;5025655;28;20453;-72
2023/07/18 08:25:34;;;;;;;4.37;2.30;;;22.60;52.40;;;22.89;41.13;98328.28;5030356;28;20467;-72
2023/07/18 08:28:02;;;;;;;3.30;1.90;;;22.70;53.10;;;22.78;41.02;98312.94;5038100;28;20588;-73
2023/07/18 08:30:30;;;;;;;2.80;2.10;;;22.70;52.80;;;23.16;40.06;98323.34;5026369;28;21096;-73
2023/07/18 08:32:57;;;;;;;3.47;2.40;;;22.90;52.50;;;23.29;38.85;98321.88;5020053;28;20447;-73
2023/07/18 08:35:25;;;;;;;2.60;2.00;;;23.10;51.70;;;23.33;38.99;98331.19;5044713;28;20532;-73
2023/07/18 08:37:52;;;;;;;2.40;2.17;;;23.10;51.60;;;23.01;39.50;98321.56;5041104;28;20461;-75
2023/07/18 08:40:19;;;;;;;3.43;2.47;;;23.00;51.60;;;23.18;39.11;98313.69;5034652;28;21472;-73
2023/07/18 08:42:48;;;;;;;3.20;2.47;;;23.20;51.60;;;23.00;39.84;98309.72;5038047;28;20455;-73
2023/07/18 08:45:17;;;;;;;4.13;2.63;;;23.00;51.80;;;23.20;39.20;98319.72;5030228;28;20458;-72
2023/07/18 08:47:45;;;;;;;2.30;1.93;;;23.10;51.50;;;23.57;40.11;98317.41;5024570;28;20520;-73
2023/07/18 08:50:13;;;;;;;2.40;2.20;;;23.30;52.70;;;23.20;38.98;98316.97;5028096;28;20508;-72
2023/07/18 08:52:41;;;;;;;4.87;2.60;;;23.20;51.30;;;23.64;38.98;98308.78;5028058;28;20935;-74
2023/07/18 08:55:10;;;;;;;3.13;2.23;;;23.40;52.00;;;23.64;38.08;98306.03;5041874;28;20459;-73
2023/07/18 08:57:39;;;;;;;3.03;1.83;;;23.50;50.90;;;24.12;37.59;98301.56;5027945;28;20462;-74
2023/07/18 09:00:11;;;;;;;3.17;1.77;;;23.70;51.30;;;24.38;37.24;98299.22;5066323;28;20791;-74
2023/07/18 09:02:40;;;;;;;2.47;2.03;;;24.00;50.90;;;24.24;36.36;98299.19;5037021;28;20439;-73
2023/07/18 09:05:27;;;;;;;3.50;2.03;;;24.00;49.90;;;24.61;36.77;98294.72;5028978;28;20462;-73
2023/07/18 09:07:57;;;;;;;3.93;2.23;;;24.20;50.70;;;24.81;35.66;98298.31;5028157;28;20467;-74
2023/07/18 09:10:24;;;;;;;2.87;2.13;;;24.40;50.00;;;24.67;35.95;98291.88;5049878;28;20465;-73
2023/07/18 09:12:53;;;;;;;2.57;2.23;;;24.40;49.80;;;24.81;35.41;98290.00;5027875;28;20874;-73
2023/07/18 09:15:21;;;;;;;3.30;2.20;;;24.50;49.60;;;24.97;36.46;98284.22;5036666;28;20537;-73
2023/07/18 09:17:57;;;;;;;4.93;2.40;;;24.60;50.30;;;25.11;35.00;98275.94;5028251;28;20438;-73
2023/07/18 09:20:27;;;;;;;3.33;2.43;;;24.80;49.60;;;24.69;36.04;98270.31;5030040;28;20463;-73
2023/07/18 09:22:56;;;;;;;2.40;2.20;;;24.70;49.40;;;24.58;36.68;98272.44;5027989;28;20969;-73
2023/07/18 09:25:24;;;;;;;3.10;2.10;;;24.50;49.70;;;24.90;35.05;98271.59;5040336;28;20481;-72
2023/07/18 09:27:53;;;;;;;3.43;2.17;;;24.70;49.20;;;25.04;35.51;98254.22;5019790;28;20464;-73
2023/07/18 09:30:24;;;;;;;4.13;1.80;;;24.80;49.40;;;24.64;35.40;98251.03;5044482;28;20449;-72
2023/07/18 09:32:52;;;;;;;3.57;2.27;;;24.80;48.80;;;25.03;34.69;98252.59;5050020;28;20469;-73
2023/07/18 09:35:20;;;;;;;3.10;2.10;;;24.80;48.80;;;25.17;35.49;98236.81;5027378;28;20448;-73
2023/07/18 09:37:50;;;;;;;3.33;2.10;;;25.00;49.40;;;25.11;33.64;98242.75;5029357;28;20824;-73
2023/07/18 09:40:18;;;;;;;2.67;2.47;;;25.00;48.00;;;25.05;34.91;98244.81;5059786;28;20814;-72
2023/07/18 09:42:48;;;;;;;4.57;3.07;;;24.90;48.40;;;25.09;34.80;98240.28;5017697;28;20455;-73
2023/07/18 09:45:17;;;;;;;2.37;2.17;;;25.00;48.50;;;25.36;34.82;98224.84;5031207;28;20967;-72
2023/07/18 09:47:45;;;;;;;3.33;1.90;;;25.00;48.90;;;25.26;33.47;98233.34;5022589;28;20483;-72
2023/07/18 09:50:14;;;;;;;5.03;1.90;;;25.10;47.90;;;25.11;33.71;98220.66;5032059;28;20484;-72
2023/07/18 09:52:49;;;;;;;2.53;2.27;;;25.00;47.70;;;24.92;34.14;98221.56;5031295;28;20449;-73
2023/07/18 09:55:24;;;;;;;2.20;2.00;;;24.80;47.90;;;25.01;33.89;98221.69;5028553;28;20502;-73
2023/07/18 09:57:55;;;;;;;2.73;1.90;;;24.80;47.50;;;24.99;33.91;98207.34;5024295;28;20447;-73
2023/07/18 10:00:24;;;;;;;2.30;2.10;;;24.90;47.70;;;25.23;33.02;98209.06;5023842;28;20537;-73
2023/07/18 10:02:52;;;;;;;2.87;2.30;;;24.90;47.30;;;25.15;33.31;98205.91;5026586;28;20805;-73
2023/07/18 10:05:20;;;;;;;2.20;2.00;;;24.90;47.10;;;25.17;33.39;98194.53;5050080;28;20518;-73
2023/07/18 10:07:49;;;;;;;2.27;1.70;;;24.90;47.30;;;25.34;33.53;98206.94;5026371;28;20918;-73
2023/07/18 10:10:18;;;;;;;2.53;1.80;;;25.00;47.40;;;25.24;33.66;98202.41;5026158;28;20479;-73
2023/07/18 10:12:59;;;;;;;3.80;2.30;;;25.10;47.50;;;25.18;34.00;98199.75;5037785;28;20475;-73
2023/07/18 10:15:27;;;;;;;4.40;1.93;;;25.00;47.60;;;25.32;34.09;98190.66;5028536;28;20476;-73
2023/07/18 10:17:55;;;;;;;2.27;2.00;;;25.10;47.90;;;25.45;34.01;98180.69;5040896;28;20476;-74
2023/07/18 10:20:25;;;;;;;5.03;2.20;;;25.20;47.90;;;25.67;34.07;98190.22;5025590;28;20917;-73
2023/07/18 10:22:58;;;;;;;3.13;2.10;;;25.40;48.20;;;25.87;32.85;98186.97;5040403;28;20452;-74
2023/07/18 10:25:28;;;;;;;2.50;2.00;;;25.50;47.30;;;25.16;34.20;98132.91;5028115;28;20459;-73